Time;durP1;ratioP1;P1;durP2;ratioP2;P2;SDS_P1;SDS_P2;PMS_P1;PMS_P2;Temp;Humidity;BMP_temperature;BMP_pressure;BME280_temperature;BME280_humidity;BME280_pressure;Samples;Min_cycle;Max_cycle;Signal;HPM_P1;HPM_P2
2021/09/21 00:01:01;;;;;;;14.43;6.00;;;;;;;-146.90;100.00;60518.97;5065926;28;20019;-79
2021/09/21 00:03:26;;;;;;;8.55;5.88;;;;;;;-146.90;100.00;60518.97;5060618;28;20116;-80
2021/09/21 00:05:51;;;;;;;10.18;6.05;;;;;;;-146.90;100.00;60518.97;5054632;28;20494;-79
2021/09/21 00:08:17;;;;;;;8.95;5.85;;;;;;;-146.90;100.00;60518.97;5055728;28;20021;-79
2021/09/21 00:10:42;;;;;;;9.32;5.43;;;;;;;-146.90;100.00;60518.97;5067921;28;20056;-79
2021/09/21 00:13:08;;;;;;;8.35;5.40;;;;;;;-146.90;100.00;60518.97;5067227;28;20099;-79
2021/09/21 00:15:33;;;;;;;8.20;5.47;;;;;;;-146.90;100.00;60518.97;5068455;28;20119;-79
2021/09/21 00:17:59;;;;;;;8.93;5.82;;;;;;;-146.90;100.00;60518.97;5066247;28;20052;-80
2021/09/21 00:20:24;;;;;;;11.13;5.57;;;;;;;-146.90;100.00;60518.97;5069335;28;20063;-80
2021/09/21 00:22:49;;;;;;;15.38;5.25;;;;;;;-146.90;100.00;60518.97;5072264;28;20031;-77
2021/09/21 00:25:15;;;;;;;10.05;5.70;;;;;;;-146.90;100.00;60518.97;5066155;28;20021;-76
2021/09/21 00:27:41;;;;;;;12.57;5.72;;;;;;;-146.90;100.00;60518.97;5068817;28;20468;-77
2021/09/21 00:30:08;;;;;;;10.82;5.72;;;;;;;-146.90;100.00;60518.97;5071787;28;20073;-76
2021/09/21 00:32:33;;;;;;;12.85;6.22;;;;;;;-146.90;100.00;60518.97;5069937;28;20028;-77
2021/09/21 00:34:59;;;;;;;8.95;5.50;;;;;;;-146.90;100.00;60518.97;5067213;28;20128;-77
2021/09/21 00:37:24;;;;;;;12.73;6.10;;;;;;;-146.90;100.00;60518.97;5071578;28;20029;-77
2021/09/21 00:39:50;;;;;;;9.15;5.82;;;;;;;-146.90;100.00;60518.97;5051059;28;20037;-77
2021/09/21 00:42:23;;;;;;;9.85;5.43;;;;;;;-146.90;100.00;60518.97;5053690;28;20047;-76
2021/09/21 00:44:53;;;;;;;9.80;5.45;;;;;;;-146.90;100.00;60518.97;5069960;28;20039;-76
2021/09/21 00:47:19;;;;;;;9.38;5.18;;;;;;;-146.90;100.00;60518.97;5071013;28;20500;-75
2021/09/21 00:49:44;;;;;;;8.32;5.65;;;;;;;-146.90;100.00;60518.97;5070724;28;20040;-76
2021/09/21 00:52:09;;;;;;;8.48;5.43;;;;;;;-146.90;100.00;60518.97;5070072;28;20574;-76
2021/09/21 00:54:35;;;;;;;8.85;5.60;;;;;;;-146.90;100.00;60518.97;5071411;28;20025;-75
2021/09/21 00:57:00;;;;;;;10.77;5.88;;;;;;;-146.90;100.00;60518.97;5070648;28;20028;-76
2021/09/21 00:59:26;;;;;;;8.52;5.45;;;;;;;-146.90;100.00;60518.97;5068373;28;20067;-77
2021/09/21 01:01:51;;;;;;;11.05;5.60;;;;;;;-146.90;100.00;60518.97;5063241;28;20452;-77
2021/09/21 01:04:17;;;;;;;11.15;5.78;;;;;;;-146.90;100.00;60518.97;5070418;28;20040;-76
2021/09/21 01:06:42;;;;;;;8.98;5.50;;;;;;;-146.90;100.00;60518.97;5065764;28;20075;-76
2021/09/21 01:09:22;;;;;;;7.18;5.30;;;;;;;-146.90;100.00;60518.97;5063876;28;20047;-77
2021/09/21 01:11:49;;;;;;;8.05;5.25;;;;;;;-146.90;100.00;60518.97;5071340;28;20024;-77
2021/09/21 01:14:14;;;;;;;10.13;6.00;;;;;;;-146.90;100.00;60518.97;5070731;28;20028;-77
2021/09/21 01:16:40;;;;;;;12.15;6.03;;;;;;;-146.90;100.00;60518.97;5071293;28;20039;-76
2021/09/21 01:19:05;;;;;;;9.82;5.93;;;;;;;-146.90;100.00;60518.97;5069919;28;20048;-76
2021/09/21 01:21:31;;;;;;;10.85;5.57;;;;;;;-146.90;100.00;60518.97;5071216;28;20131;-77
2021/09/21 01:23:56;;;;;;;10.15;6.03;;;;;;;-146.90;100.00;60518.97;5070311;28;20130;-75
2021/09/21 01:26:23;;;;;;;8.55;5.65;;;;;;;-146.90;100.00;60518.97;5070863;28;20486;-76
2021/09/21 01:28:50;;;;;;;9.52;5.60;;;;;;;-146.90;100.00;60518.97;5063882;28;20033;-75
2021/09/21 01:31:15;;;;;;;7.82;5.80;;;;;;;-146.90;100.00;60518.97;5068850;28;20033;-76
2021/09/21 01:33:44;;;;;;;9.35;5.70;;;;;;;-146.90;100.00;60518.97;5070899;28;20074;-76
2021/09/21 01:36:09;;;;;;;7.47;5.50;;;;;;;-146.90;100.00;60518.97;5070461;28;20396;-76
2021/09/21 01:38:34;;;;;;;9.93;6.13;;;;;;;-146.90;100.00;60518.97;5068778;28;20025;-76
2021/09/21 01:41:00;;;;;;;7.57;5.90;;;;;;;-146.90;100.00;60518.97;5070831;28;20024;-76
2021/09/21 01:43:25;;;;;;;10.20;6.13;;;;;;;-146.90;100.00;60518.97;5070511;28;20043;-76
2021/09/21 01:45:50;;;;;;;10.40;5.95;;;;;;;-146.90;100.00;60518.97;5070252;28;20029;-76
2021/09/21 01:48:16;;;;;;;9.05;6.60;;;;;;;-146.90;100.00;60518.97;5070688;28;20125;-77
2021/09/21 01:50:53;;;;;;;11.38;5.95;;;;;;;-146.90;100.00;60518.97;5071048;28;20042;-76
2021/09/21 02:00:42;;;;;;;10.75;6.20;;;;;;;-146.90;100.00;60518.97;5069173;28;20036;-77
2021/09/21 02:03:07;;;;;;;8.18;6.25;;;;;;;-146.90;100.00;60518.97;5069138;28;20039;-75
2021/09/21 02:05:32;;;;;;;7.78;5.82;;;;;;;-146.90;100.00;60518.97;5070125;28;20024;-77
2021/09/21 02:07:58;;;;;;;10.85;6.75;;;;;;;-146.90;100.00;60518.97;5069890;28;20024;-76
2021/09/21 02:10:23;;;;;;;9.50;6.00;;;;;;;-146.90;100.00;60518.97;5069944;28;20052;-77
2021/09/21 02:12:48;;;;;;;9.27;6.20;;;;;;;-146.90;100.00;60518.97;5069159;28;20100;-76
2021/09/21 02:15:14;;;;;;;8.50;6.10;;;;;;;-146.90;100.00;60518.97;5055679;28;20482;-76
2021/09/21 02:17:39;;;;;;;10.07;5.97;;;;;;;-146.90;100.00;60518.97;5053607;28;20025;-76
2021/09/21 02:20:05;;;;;;;10.63;6.03;;;;;;;-146.90;100.00;60518.97;5069142;28;20563;-76
2021/09/21 02:22:30;;;;;;;10.63;6.15;;;;;;;-146.90;100.00;60518.97;5069054;28;20044;-76
2021/09/21 02:24:56;;;;;;;8.75;6.35;;;;;;;-146.90;100.00;60518.97;5068570;28;20036;-77
2021/09/21 02:27:24;;;;;;;10.60;6.45;;;;;;;-146.90;100.00;60518.97;5070175;28;20371;-76
2021/09/21 02:29:49;;;;;;;8.70;6.50;;;;;;;-146.90;100.00;60518.97;5068742;28;20036;-76
2021/09/21 02:32:14;;;;;;;7.78;6.25;;;;;;;-146.90;100.00;60518.97;5069813;28;20043;-77
2021/09/21 02:34:44;;;;;;;8.63;6.15;;;;;;;-146.90;100.00;60518.97;5069308;28;20078;-77
2021/09/21 02:37:10;;;;;;;10.68;6.38;;;;;;;-146.90;100.00;60518.97;5069106;28;20052;-77
2021/09/21 02:39:36;;;;;;;10.18;6.03;;;;;;;-146.90;100.00;60518.97;5069055;28;20047;-77
2021/09/21 02:42:01;;;;;;;9.38;6.32;;;;;;;-146.90;100.00;60518.97;5069110;28;20148;-77
2021/09/21 02:44:26;;;;;;;9.45;6.30;;;;;;;-146.90;100.00;60518.97;5067410;28;20083;-77
2021/09/21 02:46:52;;;;;;;8.90;6.07;;;;;;;-146.90;100.00;60518.97;5069412;28;20050;-77
2021/09/21 02:49:17;;;;;;;9.77;6.32;;;;;;;-146.90;100.00;60518.97;5068221;28;20020;-77
2021/09/21 02:51:42;;;;;;;15.75;5.90;;;;;;;-146.90;100.00;60518.97;5069496;28;20028;-77
2021/09/21 02:54:08;;;;;;;8.70;6.15;;;;;;;-146.90;100.00;60518.97;5067412;28;20512;-76
2021/09/21 02:56:33;;;;;;;8.55;6.03;;;;;;;-146.90;100.00;60518.97;5068895;28;20635;-75
2021/09/21 02:58:58;;;;;;;8.48;5.95;;;;;;;-146.90;100.00;60518.97;5068169;28;20115;-76
2021/09/21 03:01:24;;;;;;;10.65;6.40;;;;;;;-146.90;100.00;60518.97;5069094;28;20024;-76
2021/09/21 03:03:56;;;;;;;10.15;6.05;;;;;;;-146.90;100.00;60518.97;5067284;28;20066;-76
2021/09/21 03:06:25;;;;;;;9.20;6.60;;;;;;;-146.90;100.00;60518.97;5068563;28;20040;-76
2021/09/21 03:08:52;;;;;;;9.00;6.38;;;;;;;-146.90;100.00;60518.97;5068934;28;20032;-77
2021/09/21 03:11:22;;;;;;;9.50;6.50;;;;;;;-146.90;100.00;60518.97;5068607;28;20029;-76
2021/09/21 03:19:16;;;;;;;8.93;6.57;;;;;;;-146.90;100.00;60518.97;5067463;28;20051;-77
2021/09/21 03:21:41;;;;;;;10.98;6.85;;;;;;;-146.90;100.00;60518.97;5069342;28;20020;-76
2021/09/21 03:24:06;;;;;;;8.73;5.95;;;;;;;-146.90;100.00;60518.97;5066435;28;20028;-77
2021/09/21 03:26:32;;;;;;;10.57;7.07;;;;;;;-146.90;100.00;60518.97;5054706;28;20065;-76
2021/09/21 03:28:57;;;;;;;10.18;7.13;;;;;;;-146.90;100.00;60518.97;5057923;28;20439;-76
2021/09/21 03:31:22;;;;;;;9.95;7.32;;;;;;;-146.90;100.00;60518.97;5069253;28;20441;-76
2021/09/21 03:33:47;;;;;;;10.27;7.03;;;;;;;-146.90;100.00;60518.97;5067245;28;20446;-76
2021/09/21 03:36:13;;;;;;;14.02;7.70;;;;;;;-146.90;100.00;60518.97;5067136;28;20120;-77
2021/09/21 03:38:38;;;;;;;10.05;6.78;;;;;;;-146.90;100.00;60518.97;5068241;28;20024;-77
2021/09/21 03:41:03;;;;;;;11.65;7.15;;;;;;;-146.90;100.00;60518.97;5068226;28;20032;-77
2021/09/21 03:43:29;;;;;;;9.85;6.60;;;;;;;-146.90;100.00;60518.97;5069016;28;20450;-77
2021/09/21 03:45:54;;;;;;;9.40;6.93;;;;;;;-146.90;100.00;60518.97;5067565;28;20021;-76
2021/09/21 03:48:19;;;;;;;10.65;7.10;;;;;;;-146.90;100.00;60518.97;5066987;28;20474;-76
2021/09/21 03:50:45;;;;;;;11.68;7.45;;;;;;;-146.90;100.00;60518.97;5066233;28;20755;-76
2021/09/21 03:53:10;;;;;;;11.57;7.00;;;;;;;-146.90;100.00;60518.97;5068057;28;20486;-76
2021/09/21 03:55:35;;;;;;;11.25;7.45;;;;;;;-146.90;100.00;60518.97;5071908;28;20033;-76
2021/09/21 03:58:01;;;;;;;9.82;7.00;;;;;;;-146.90;100.00;60518.97;5070394;28;20037;-76
2021/09/21 04:00:26;;;;;;;8.52;6.57;;;;;;;-146.90;100.00;60518.97;5071784;28;20056;-76
2021/09/21 04:02:52;;;;;;;9.48;7.47;;;;;;;-146.90;100.00;60518.97;5072440;28;20016;-77
2021/09/21 04:05:17;;;;;;;10.45;7.50;;;;;;;-146.90;100.00;60518.97;5071754;28;20029;-77
2021/09/21 04:07:42;;;;;;;9.93;7.32;;;;;;;-146.90;100.00;60518.97;5072496;28;20020;-76
2021/09/21 04:10:08;;;;;;;10.05;7.55;;;;;;;-146.90;100.00;60518.97;5070333;28;20052;-76
2021/09/21 04:12:35;;;;;;;10.85;7.60;;;;;;;-146.90;100.00;60518.97;5070900;28;20029;-77
2021/09/21 04:15:02;;;;;;;10.25;7.72;;;;;;;-146.90;100.00;60518.97;5071248;28;20103;-77
2021/09/21 04:17:27;;;;;;;10.18;6.82;;;;;;;-146.90;100.00;60518.97;5070543;28;20401;-77
2021/09/21 04:19:52;;;;;;;10.95;8.00;;;;;;;-146.90;100.00;60518.97;5071602;28;20024;-74
2021/09/21 04:22:18;;;;;;;9.25;7.38;;;;;;;-146.90;100.00;60518.97;5071279;28;20029;-77
2021/09/21 04:24:43;;;;;;;10.75;7.75;;;;;;;-146.90;100.00;60518.97;5071487;28;20029;-76
2021/09/21 04:27:08;;;;;;;11.98;7.70;;;;;;;-146.90;100.00;60518.97;5071944;28;20028;-75
2021/09/21 04:29:34;;;;;;;10.77;7.30;;;;;;;-146.90;100.00;60518.97;5071407;28;20021;-76
2021/09/21 04:32:02;;;;;;;8.30;6.72;;;;;;;-146.90;100.00;60518.97;5071436;28;20056;-76
2021/09/21 04:34:30;;;;;;;11.55;7.65;;;;;;;-146.90;100.00;60518.97;5071503;28;20522;-76
2021/09/21 04:36:58;;;;;;;10.15;7.53;;;;;;;-146.90;100.00;60518.97;5070759;28;20029;-76
2021/09/21 04:39:25;;;;;;;10.23;7.10;;;;;;;-146.90;100.00;60518.97;5071371;28;20100;-77
2021/09/21 04:41:51;;;;;;;10.68;7.97;;;;;;;-146.90;100.00;60518.97;5070441;28;20431;-76
2021/09/21 04:44:16;;;;;;;10.23;8.07;;;;;;;-146.90;100.00;60518.97;5071226;28;20056;-76
2021/09/21 04:46:41;;;;;;;10.85;8.32;;;;;;;-146.90;100.00;60518.97;5071367;28;20630;-76
2021/09/21 04:49:11;;;;;;;13.05;8.45;;;;;;;-146.90;100.00;60518.97;5069389;28;20044;-77
2021/09/21 04:51:37;;;;;;;11.93;7.60;;;;;;;-146.90;100.00;60518.97;5071385;28;20775;-77
2021/09/21 04:54:02;;;;;;;10.27;7.88;;;;;;;-146.90;100.00;60518.97;5049358;28;20033;-77
2021/09/21 04:56:27;;;;;;;11.45;7.90;;;;;;;-146.90;100.00;60518.97;5056077;28;20020;-77
2021/09/21 04:58:53;;;;;;;10.43;7.40;;;;;;;-146.90;100.00;60518.97;5070127;28;20047;-77
2021/09/21 05:01:19;;;;;;;10.75;8.48;;;;;;;-146.90;100.00;60518.97;5071217;28;20081;-77
2021/09/21 05:03:44;;;;;;;14.32;9.10;;;;;;;-146.90;100.00;60518.97;5069631;28;20041;-77
2021/09/21 05:06:09;;;;;;;9.63;7.53;;;;;;;-146.90;100.00;60518.97;5068189;28;20155;-76
2021/09/21 05:08:35;;;;;;;10.48;8.13;;;;;;;-146.90;100.00;60518.97;5062366;28;20091;-75
2021/09/21 05:11:00;;;;;;;11.40;8.38;;;;;;;-146.90;100.00;60518.97;5050818;28;20021;-76
2021/09/21 05:13:26;;;;;;;13.90;8.68;;;;;;;-146.90;100.00;60518.97;5062758;28;20489;-75
2021/09/21 05:15:51;;;;;;;14.73;8.82;;;;;;;-146.90;100.00;60518.97;5070453;28;20025;-75
2021/09/21 05:18:17;;;;;;;15.50;8.63;;;;;;;-146.90;100.00;60518.97;5070507;28;20036;-76
2021/09/21 05:20:42;;;;;;;11.45;7.72;;;;;;;-146.90;100.00;60518.97;5070587;28;20037;-75
2021/09/21 05:23:10;;;;;;;14.00;8.40;;;;;;;-146.90;100.00;60518.97;5068417;28;20538;-78
2021/09/21 05:25:36;;;;;;;10.63;7.95;;;;;;;-146.90;100.00;60518.97;5068682;28;20060;-77
2021/09/21 05:28:02;;;;;;;12.65;8.20;;;;;;;-146.90;100.00;60518.97;5070142;28;20630;-77
2021/09/21 05:30:27;;;;;;;10.70;7.85;;;;;;;-146.90;100.00;60518.97;5069951;28;20439;-76
2021/09/21 05:32:52;;;;;;;12.43;8.02;;;;;;;-146.90;100.00;60518.97;5070341;28;20070;-76
2021/09/21 05:35:18;;;;;;;12.75;9.00;;;;;;;-146.90;100.00;60518.97;5069638;28;20047;-77
2021/09/21 05:37:43;;;;;;;13.93;9.02;;;;;;;-146.90;100.00;60518.97;5069261;28;20031;-77
2021/09/21 05:40:09;;;;;;;14.23;9.07;;;;;;;-146.90;100.00;60518.97;5068054;28;20028;-78
2021/09/21 05:42:36;;;;;;;12.15;8.77;;;;;;;-146.90;100.00;60518.97;5070709;28;20536;-76
2021/09/21 05:45:08;;;;;;;12.65;9.27;;;;;;;-146.90;100.00;60518.97;5068591;28;20033;-77
2021/09/21 05:47:33;;;;;;;14.25;9.05;;;;;;;-146.90;100.00;60518.97;5068343;28;20099;-75
2021/09/21 05:49:58;;;;;;;12.50;9.20;;;;;;;-146.90;100.00;60518.97;5069221;28;20159;-77
2021/09/21 05:52:25;;;;;;;11.57;9.45;;;;;;;-146.90;100.00;60518.97;5070223;28;20111;-78
2021/09/21 05:54:50;;;;;;;12.68;8.50;;;;;;;-146.90;100.00;60518.97;5067637;28;20028;-77
2021/09/21 05:57:16;;;;;;;16.73;8.02;;;;;;;-146.90;100.00;60518.97;5069740;28;20384;-78
2021/09/21 05:59:41;;;;;;;11.30;7.20;;;;;;;-146.90;100.00;60518.97;5050718;28;20043;-77
2021/09/21 06:02:07;;;;;;;10.30;6.68;;;;;;;-146.90;100.00;60518.97;5068502;28;20458;-77
2021/09/21 06:04:34;;;;;;;13.68;6.93;;;;;;;-146.90;100.00;60518.97;5050477;28;20022;-77
2021/09/21 06:07:00;;;;;;;11.73;7.15;;;;;;;-146.90;100.00;60518.97;5069304;28;20024;-83
2021/09/21 06:09:25;;;;;;;9.43;5.90;;;;;;;-146.90;100.00;60518.97;5069502;28;20032;-83
2021/09/21 06:11:50;;;;;;;12.43;6.40;;;;;;;-146.90;100.00;60518.97;5069266;28;20116;-78
2021/09/21 06:14:16;;;;;;;15.30;6.75;;;;;;;-146.90;100.00;60518.97;5067256;28;20020;-77
2021/09/21 06:16:41;;;;;;;17.63;6.63;;;;;;;-146.90;100.00;60518.97;5068340;28;20523;-81
2021/09/21 06:19:06;;;;;;;11.88;6.10;;;;;;;-146.90;100.00;60518.97;5067223;28;20410;-81
2021/09/21 06:21:32;;;;;;;10.10;6.55;;;;;;;-146.90;100.00;60518.97;5069618;28;20031;-82
2021/09/21 06:23:58;;;;;;;11.40;5.85;;;;;;;-146.90;100.00;60518.97;5049017;28;20029;-83
2021/09/21 06:26:24;;;;;;;10.85;5.93;;;;;;;-146.90;100.00;60518.97;5049208;28;20025;-83
2021/09/21 06:28:49;;;;;;;10.13;5.80;;;;;;;-146.90;100.00;60518.97;5048843;28;20421;-82
2021/09/21 06:31:14;;;;;;;12.73;6.18;;;;;;;-146.90;100.00;60518.97;5047918;28;20125;-82
2021/09/21 06:33:40;;;;;;;13.77;6.13;;;;;;;-146.90;100.00;60518.97;5049161;28;20045;-81
2021/09/21 06:36:05;;;;;;;14.30;5.93;;;;;;;-146.90;100.00;60518.97;5047507;28;20033;-81
2021/09/21 06:38:34;;;;;;;8.57;5.50;;;;;;;-146.90;100.00;60518.97;5068501;28;20032;-82
2021/09/21 06:41:00;;;;;;;11.48;6.15;;;;;;;-146.90;100.00;60518.97;5068319;28;20104;-82
2021/09/21 06:43:25;;;;;;;10.93;6.15;;;;;;;-146.90;100.00;60518.97;5066605;28;20016;-83
2021/09/21 06:45:55;;;;;;;10.80;5.97;;;;;;;-146.90;100.00;60518.97;5067667;28;20456;-82
2021/09/21 06:48:20;;;;;;;10.90;5.78;;;;;;;-146.90;100.00;60518.97;5068982;28;20023;-81
2021/09/21 06:50:46;;;;;;;9.40;6.07;;;;;;;-146.90;100.00;60518.97;5069314;28;20032;-82
2021/09/21 06:53:11;;;;;;;16.80;6.30;;;;;;;-146.90;100.00;60518.97;5068460;28;20028;-82
2021/09/21 06:55:36;;;;;;;10.63;6.90;;;;;;;-146.90;100.00;60518.97;5067246;28;20024;-83
2021/09/21 06:58:01;;;;;;;14.40;6.95;;;;;;;-146.90;100.00;60518.97;5068897;28;20031;-81
2021/09/21 07:00:27;;;;;;;12.43;7.18;;;;;;;-146.90;100.00;60518.97;5069438;28;20359;-80
2021/09/21 07:02:53;;;;;;;13.48;7.82;;;;;;;-146.90;100.00;60518.97;5069249;28;20033;-82
2021/09/21 07:05:20;;;;;;;9.82;6.97;;;;;;;-146.90;100.00;60518.97;5069674;28;20028;-82
2021/09/21 07:07:48;;;;;;;10.73;6.88;;;;;;;-146.90;100.00;60518.97;5065978;28;20036;-77
2021/09/21 07:10:14;;;;;;;11.15;7.30;;;;;;;-146.90;100.00;60518.97;5060270;28;20540;-77
2021/09/21 07:12:40;;;;;;;9.93;6.68;;;;;;;-146.90;100.00;60518.97;5061909;28;20041;-80
2021/09/21 07:15:07;;;;;;;10.13;6.70;;;;;;;-146.90;100.00;60518.97;5073405;28;20110;-84
2021/09/21 07:17:32;;;;;;;14.50;7.40;;;;;;;-146.90;100.00;60518.97;5080157;28;20028;-78
2021/09/21 07:19:57;;;;;;;9.32;6.47;;;;;;;-146.90;100.00;60518.97;5077155;28;20544;-78
2021/09/21 07:22:23;;;;;;;11.48;6.30;;;;;;;-146.90;100.00;60518.97;5066376;28;20531;-77
2021/09/21 07:24:49;;;;;;;9.77;6.70;;;;;;;-146.90;100.00;60518.97;5074451;28;20099;-76
2021/09/21 07:27:15;;;;;;;11.73;7.20;;;;;;;-146.90;100.00;60518.97;5069643;28;20106;-82
2021/09/21 07:29:40;;;;;;;10.90;6.60;;;;;;;-146.90;100.00;60518.97;5081387;28;20024;-81
2021/09/21 07:32:05;;;;;;;11.98;6.40;;;;;;;-146.90;100.00;60518.97;5058819;28;20478;-80
2021/09/21 07:34:31;;;;;;;13.30;6.80;;;;;;;-146.90;100.00;60518.97;5050269;28;20028;-80
2021/09/21 07:36:56;;;;;;;11.88;6.38;;;;;;;-146.90;100.00;60518.97;5073375;28;20140;-79
2021/09/21 07:39:21;;;;;;;10.48;7.10;;;;;;;-146.90;100.00;60518.97;5072094;28;20100;-78
2021/09/21 07:41:47;;;;;;;11.50;6.80;;;;;;;-146.90;100.00;60518.97;5072843;28;20029;-79
2021/09/21 07:44:12;;;;;;;8.98;6.00;;;;;;;-146.90;100.00;60518.97;5081109;28;20669;-77
2021/09/21 07:46:38;;;;;;;8.82;6.53;;;;;;;-146.90;100.00;60518.97;5084831;28;20039;-77
2021/09/21 07:49:03;;;;;;;11.85;5.78;;;;;;;-146.90;100.00;60518.97;5049414;28;20017;-76
2021/09/21 07:51:29;;;;;;;12.40;5.90;;;;;;;-146.90;100.00;60518.97;5048037;28;20101;-78
2021/09/21 07:53:54;;;;;;;11.20;6.60;;;;;;;-146.90;100.00;60518.97;5050118;28;20027;-80
2021/09/21 07:56:20;;;;;;;10.63;6.45;;;;;;;-146.90;100.00;60518.97;5049212;28;20114;-77
2021/09/21 07:58:45;;;;;;;10.80;6.35;;;;;;;-146.90;100.00;60518.97;5057091;28;20064;-74
2021/09/21 08:01:11;;;;;;;9.38;5.90;;;;;;;-146.90;100.00;60518.97;5050364;28;20142;-75
2021/09/21 08:03:36;;;;;;;11.10;5.70;;;;;;;-146.90;100.00;60518.97;5047853;28;20386;-74
2021/09/21 08:06:02;;;;;;;14.00;5.55;;;;;;;-146.90;100.00;60518.97;5047075;28;20491;-74
2021/09/21 08:08:27;;;;;;;18.98;5.88;;;;;;;-146.90;100.00;60518.97;5055174;28;20087;-75
2021/09/21 08:10:52;;;;;;;7.88;4.72;;;;;;;-146.90;100.00;60518.97;5084185;28;20028;-74
2021/09/21 08:13:18;;;;;;;8.13;4.32;;;;;;;-146.90;100.00;60518.97;5087568;28;20020;-73
2021/09/21 08:15:43;;;;;;;9.60;4.93;;;;;;;-146.90;100.00;60518.97;5087390;28;20027;-75
2021/09/21 08:18:08;;;;;;;9.02;4.55;;;;;;;-146.90;100.00;60518.97;5086024;28;20032;-74
2021/09/21 08:20:35;;;;;;;7.82;4.00;;;;;;;-146.90;100.00;60518.97;5083391;28;20028;-74
2021/09/21 08:23:00;;;;;;;6.15;3.58;;;;;;;-146.90;100.00;60518.97;5073454;28;20025;-76
2021/09/21 08:25:26;;;;;;;6.13;3.20;;;;;;;-146.90;100.00;60518.97;5072813;28;20073;-81
2021/09/21 08:27:51;;;;;;;7.40;3.50;;;;;;;-146.90;100.00;60518.97;5067723;28;20024;-84
2021/09/21 08:30:19;;;;;;;6.57;3.78;;;;;;;-146.90;100.00;60518.97;5051424;28;20028;-79
2021/09/21 08:32:44;;;;;;;10.85;3.70;;;;;;;-146.90;100.00;60518.97;5063667;28;20566;-80
2021/09/21 08:35:10;;;;;;;8.48;3.30;;;;;;;-146.90;100.00;60518.97;5059134;28;20040;-77
2021/09/21 08:37:35;;;;;;;8.25;3.53;;;;;;;-146.90;100.00;60518.97;5064325;28;20402;-75
2021/09/21 08:40:01;;;;;;;7.82;3.85;;;;;;;-146.90;100.00;60518.97;5067193;28;20093;-76
2021/09/21 08:42:26;;;;;;;7.53;4.10;;;;;;;-146.90;100.00;60518.97;5070109;28;20030;-77
2021/09/21 08:44:52;;;;;;;11.27;4.78;;;;;;;-146.90;100.00;60518.97;5068704;28;20025;-78
2021/09/21 08:47:17;;;;;;;11.45;4.28;;;;;;;-146.90;100.00;60518.97;5069731;28;20081;-78
2021/09/21 08:49:44;;;;;;;8.75;3.63;;;;;;;-146.90;100.00;60518.97;5069901;28;20040;-77
2021/09/21 08:52:09;;;;;;;7.63;4.20;;;;;;;-146.90;100.00;60518.97;5068367;28;20042;-76
2021/09/21 08:54:35;;;;;;;9.23;4.03;;;;;;;-146.90;100.00;60518.97;5069263;28;20671;-78
2021/09/21 08:57:00;;;;;;;15.32;4.38;;;;;;;-146.90;100.00;60518.97;5069907;28;20016;-77
2021/09/21 08:59:31;;;;;;;9.43;4.72;;;;;;;-146.90;100.00;60518.97;5070592;28;20032;-78
2021/09/21 09:01:56;;;;;;;8.38;4.35;;;;;;;-146.90;100.00;60518.97;5069781;28;20111;-78
2021/09/21 09:04:22;;;;;;;8.30;4.57;;;;;;;-146.90;100.00;60518.97;5069501;28;20603;-77
2021/09/21 09:06:53;;;;;;;10.45;4.00;;;;;;;-146.90;100.00;60518.97;5070621;28;20025;-78
2021/09/21 09:09:22;;;;;;;13.60;4.00;;;;;;;-146.90;100.00;60518.97;5070644;28;20130;-78
2021/09/21 09:11:55;;;;;;;8.48;3.20;;;;;;;-146.90;100.00;60518.97;5070662;28;20028;-79
2021/09/21 09:14:25;;;;;;;10.27;3.10;;;;;;;-146.90;100.00;60518.97;5070914;28;20138;-80
2021/09/21 09:17:11;;;;;;;4.95;3.10;;;;;;;-146.90;100.00;60518.97;5067982;28;20040;-77
2021/09/21 09:19:45;;;;;;;7.88;3.40;;;;;;;-146.90;100.00;60518.97;5068289;28;20175;-79
2021/09/21 09:22:14;;;;;;;;;;;;;;;-146.90;100.00;60518.97;5089675;28;20131;-81
2021/09/21 09:24:54;;;;;;;9.23;3.22;;;;;;;-146.90;100.00;60518.97;5090633;28;19908;-78
2021/09/21 09:27:28;;;;;;;9.75;3.50;;;;;;;-146.90;100.00;60518.97;5085029;28;20116;-78
2021/09/21 09:30:00;;;;;;;4.18;2.30;;;;;;;-146.90;100.00;60518.97;5084866;28;20458;-78
2021/09/21 09:32:26;;;;;;;4.75;2.65;;;;;;;-146.90;100.00;60518.97;5091091;28;20205;-78
2021/09/21 09:34:52;;;;;;;4.68;2.33;;;;;;;-146.90;100.00;60518.97;5089646;28;20513;-80
2021/09/21 09:37:18;;;;;;;6.57;2.33;;;;;;;-146.90;100.00;60518.97;5090840;28;20035;-80
2021/09/21 09:39:46;;;;;;;5.85;2.50;;;;;;;-146.90;100.00;60518.97;5076290;28;20029;-78
2021/09/21 09:42:12;;;;;;;5.88;2.15;;;;;;;-146.90;100.00;60518.97;5050457;28;20029;-78
2021/09/21 09:44:38;;;;;;;5.60;2.58;;;;;;;-146.90;100.00;60518.97;5052973;28;20052;-78
2021/09/21 09:47:05;;;;;;;10.10;2.55;;;;;;;-146.90;100.00;60518.97;5054160;28;20056;-79
2021/09/21 09:49:36;;;;;;;4.57;2.55;;;;;;;-146.90;100.00;60518.97;5060057;28;20013;-80
2021/09/21 09:52:11;;;;;;;9.00;2.60;;;;;;;-146.90;100.00;60518.97;5051347;28;20028;-80
2021/09/21 09:54:38;;;;;;;7.07;2.75;;;;;;;-146.90;100.00;60518.97;5059011;28;20498;-81
2021/09/21 09:57:05;;;;;;;7.20;2.83;;;;;;;-146.90;100.00;60518.97;5064840;28;20093;-80
2021/09/21 09:59:31;;;;;;;5.47;2.83;;;;;;;-146.90;100.00;60518.97;5088504;28;20157;-79
2021/09/21 10:01:56;;;;;;;5.43;2.65;;;;;;;-146.90;100.00;60518.97;5082692;28;20116;-81
2021/09/21 10:04:22;;;;;;;7.70;2.45;;;;;;;-146.90;100.00;60518.97;5089569;28;20369;-80
2021/09/21 10:06:47;;;;;;;6.25;2.80;;;;;;;-146.90;100.00;60518.97;5089569;28;20035;-80
2021/09/21 10:09:15;;;;;;;7.40;3.42;;;;;;;-146.90;100.00;60518.97;5089438;28;20020;-83
2021/09/21 10:11:41;;;;;;;5.35;2.58;;;;;;;-146.90;100.00;60518.97;5088324;28;20020;-81
2021/09/21 10:14:07;;;;;;;4.78;2.70;;;;;;;-146.90;100.00;60518.97;5084654;28;20054;-80
2021/09/21 10:16:32;;;;;;;6.75;2.45;;;;;;;-146.90;100.00;60518.97;5089478;28;20019;-80
2021/09/21 10:19:00;;;;;;;9.02;3.13;;;;;;;-146.90;100.00;60518.97;5054405;28;20124;-80
2021/09/21 10:21:30;;;;;;;13.50;2.67;;;;;;;-146.90;100.00;60518.97;5065343;28;20025;-79
2021/09/21 10:23:59;;;;;;;5.05;2.25;;;;;;;-146.90;100.00;60518.97;5048498;28;20029;-77
2021/09/21 10:26:26;;;;;;;4.93;2.10;;;;;;;-146.90;100.00;60518.97;5053016;28;20384;-77
2021/09/21 10:28:51;;;;;;;3.13;2.10;;;;;;;-146.90;100.00;60518.97;5057269;28;20020;-77
2021/09/21 10:31:20;;;;;;;5.72;2.30;;;;;;;-146.90;100.00;60518.97;5050506;28;20036;-80
2021/09/21 10:33:47;;;;;;;7.15;2.63;;;;;;;-146.90;100.00;60518.97;5054664;28;20048;-82
2021/09/21 10:36:30;;;;;;;5.78;2.70;;;;;;;-146.90;100.00;60518.97;5067370;28;20095;-80
2021/09/21 10:39:11;;;;;;;5.75;2.90;;;;;;;-146.90;100.00;60518.97;5055198;28;20789;-80
2021/09/21 10:41:58;;;;;;;4.95;2.70;;;;;;;-146.90;100.00;60518.97;5068986;28;20028;-77
2021/09/21 10:44:24;;;;;;;6.65;2.97;;;;;;;-146.90;100.00;60518.97;5069196;28;20020;-76
2021/09/21 10:46:57;;;;;;;5.25;2.80;;;;;;;-146.90;100.00;60518.97;5068214;28;20401;-77
2021/09/21 10:49:35;;;;;;;6.03;3.00;;;;;;;-146.90;100.00;60518.97;5068739;28;20082;-85
2021/09/21 10:52:06;;;;;;;6.20;2.78;;;;;;;-146.90;100.00;60518.97;5066253;28;20278;-76
2021/09/21 10:54:37;;;;;;;6.88;3.38;;;;;;;-146.90;100.00;60518.97;5068834;28;20016;-81
2021/09/21 10:57:12;;;;;;;4.57;2.80;;;;;;;-146.90;100.00;60518.97;5049653;28;20039;-77
2021/09/21 10:59:39;;;;;;;7.97;3.03;;;;;;;-146.90;100.00;60518.97;5063712;28;20033;-79
2021/09/21 11:02:06;;;;;;;5.53;2.65;;;;;;;-146.90;100.00;60518.97;5062610;28;20051;-81
2021/09/21 11:04:43;;;;;;;5.18;3.30;;;;;;;-146.90;100.00;60518.97;5068545;28;20123;-80
2021/09/21 11:07:11;;;;;;;6.22;3.13;;;;;;;-146.90;100.00;60518.97;5068152;28;20032;-81
2021/09/21 11:09:36;;;;;;;4.63;2.92;;;;;;;-146.90;100.00;60518.97;5069056;28;20016;-81
2021/09/21 11:12:10;;;;;;;5.45;3.03;;;;;;;-146.90;100.00;60518.97;5068169;28;20028;-81
2021/09/21 11:14:42;;;;;;;8.07;3.10;;;;;;;-146.90;100.00;60518.97;5067717;28;20028;-81